sensor_id;sensor_type;location;lat;lon;timestamp;pressure;altitude;pressure_sealevel;temperature;humidity
35676;BME280;21790;42.668;23.298;2023-12-20T00:01:19;95055.53;;;7.48;48.77
35676;BME280;21790;42.668;23.298;2023-12-20T00:03:45;95059.50;;;7.63;48.79
35676;BME280;21790;42.668;23.298;2023-12-20T00:06:10;95057.50;;;7.64;48.44
35676;BME280;21790;42.668;23.298;2023-12-20T00:08:36;95057.09;;;7.49;48.71
35676;BME280;21790;42.668;23.298;2023-12-20T00:11:01;95040.81;;;7.26;49.09
35676;BME280;21790;42.668;23.298;2023-12-20T00:13:26;95047.84;;;7.27;49.07
35676;BME280;21790;42.668;23.298;2023-12-20T00:15:52;95047.16;;;7.23;49.30
35676;BME280;21790;42.668;23.298;2023-12-20T00:18:17;95045.88;;;7.27;49.16
35676;BME280;21790;42.668;23.298;2023-12-20T00:20:42;95040.31;;;7.14;49.96
35676;BME280;21790;42.668;23.298;2023-12-20T00:23:08;95041.81;;;7.32;49.32
35676;BME280;21790;42.668;23.298;2023-12-20T00:25:34;95037.03;;;7.36;49.18
35676;BME280;21790;42.668;23.298;2023-12-20T00:28:00;95034.44;;;7.45;48.66
35676;BME280;21790;42.668;23.298;2023-12-20T00:30:25;95024.59;;;7.60;48.23
35676;BME280;21790;42.668;23.298;2023-12-20T00:32:51;95029.78;;;7.71;47.87
35676;BME280;21790;42.668;23.298;2023-12-20T00:35:17;95019.78;;;7.48;48.33
35676;BME280;21790;42.668;23.298;2023-12-20T00:37:42;95015.19;;;7.45;48.30
35676;BME280;21790;42.668;23.298;2023-12-20T00:40:08;95025.41;;;7.73;47.28
35676;BME280;21790;42.668;23.298;2023-12-20T00:42:33;95012.38;;;7.61;47.28
35676;BME280;21790;42.668;23.298;2023-12-20T00:44:59;95014.31;;;7.77;47.71
35676;BME280;21790;42.668;23.298;2023-12-20T00:47:24;95006.59;;;7.72;47.74
35676;BME280;21790;42.668;23.298;2023-12-20T00:49:50;95015.81;;;7.65;48.12
35676;BME280;21790;42.668;23.298;2023-12-20T00:52:15;95006.09;;;7.61;48.36
35676;BME280;21790;42.668;23.298;2023-12-20T00:54:42;94999.59;;;7.54;48.43
35676;BME280;21790;42.668;23.298;2023-12-20T00:57:07;95004.78;;;7.52;48.23
35676;BME280;21790;42.668;23.298;2023-12-20T00:59:33;94996.19;;;7.50;47.75
35676;BME280;21790;42.668;23.298;2023-12-20T01:01:58;94997.66;;;7.39;48.26
35676;BME280;21790;42.668;23.298;2023-12-20T01:04:23;94998.09;;;7.37;48.43
35676;BME280;21790;42.668;23.298;2023-12-20T01:06:49;94993.75;;;7.24;48.65
35676;BME280;21790;42.668;23.298;2023-12-20T01:09:14;94983.81;;;7.13;49.16
35676;BME280;21790;42.668;23.298;2023-12-20T01:11:39;94978.50;;;7.06;49.29
35676;BME280;21790;42.668;23.298;2023-12-20T01:14:05;94981.66;;;7.05;49.23
35676;BME280;21790;42.668;23.298;2023-12-20T01:16:31;94987.34;;;6.98;49.18
35676;BME280;21790;42.668;23.298;2023-12-20T01:18:56;94980.97;;;7.17;49.32
35676;BME280;21790;42.668;23.298;2023-12-20T01:21:22;94980.00;;;7.24;48.81
35676;BME280;21790;42.668;23.298;2023-12-20T01:23:47;94976.09;;;7.08;49.14
35676;BME280;21790;42.668;23.298;2023-12-20T01:26:12;94968.13;;;7.27;48.63
35676;BME280;21790;42.668;23.298;2023-12-20T01:28:38;94959.56;;;7.25;48.67
35676;BME280;21790;42.668;23.298;2023-12-20T01:31:03;94953.97;;;7.28;48.39
35676;BME280;21790;42.668;23.298;2023-12-20T01:33:29;94960.09;;;7.20;48.43
35676;BME280;21790;42.668;23.298;2023-12-20T01:35:54;94950.88;;;7.26;48.07
35676;BME280;21790;42.668;23.298;2023-12-20T01:38:20;94948.69;;;7.05;48.79
35676;BME280;21790;42.668;23.298;2023-12-20T01:40:45;94950.34;;;7.31;48.14
35676;BME280;21790;42.668;23.298;2023-12-20T01:43:11;94948.63;;;7.08;48.70
35676;BME280;21790;42.668;23.298;2023-12-20T01:45:39;94943.47;;;6.94;49.05
35676;BME280;21790;42.668;23.298;2023-12-20T01:48:05;94939.38;;;7.15;48.70
35676;BME280;21790;42.668;23.298;2023-12-20T01:50:32;94923.53;;;7.35;48.08
35676;BME280;21790;42.668;23.298;2023-12-20T01:53:01;94928.88;;;7.26;48.27
35676;BME280;21790;42.668;23.298;2023-12-20T01:55:29;94925.88;;;7.21;48.13
35676;BME280;21790;42.668;23.298;2023-12-20T01:57:57;94911.00;;;7.05;48.38
35676;BME280;21790;42.668;23.298;2023-12-20T02:00:23;94917.03;;;7.00;48.53
35676;BME280;21790;42.668;23.298;2023-12-20T02:02:53;94917.91;;;6.97;48.57
35676;BME280;21790;42.668;23.298;2023-12-20T02:05:19;94898.50;;;6.88;48.17
35676;BME280;21790;42.668;23.298;2023-12-20T02:07:45;94896.28;;;6.83;48.28
35676;BME280;21790;42.668;23.298;2023-12-20T02:10:11;94896.13;;;6.74;48.43
35676;BME280;21790;42.668;23.298;2023-12-20T02:12:37;94888.25;;;6.60;48.76
35676;BME280;21790;42.668;23.298;2023-12-20T02:15:03;94887.38;;;6.63;48.80
35676;BME280;21790;42.668;23.298;2023-12-20T02:17:30;94884.75;;;6.59;49.02
35676;BME280;21790;42.668;23.298;2023-12-20T02:19:56;94897.28;;;6.89;48.79
35676;BME280;21790;42.668;23.298;2023-12-20T02:22:22;94901.63;;;6.74;49.15
35676;BME280;21790;42.668;23.298;2023-12-20T02:24:47;94894.22;;;6.71;49.11
35676;BME280;21790;42.668;23.298;2023-12-20T02:27:13;94899.72;;;6.71;49.14
35676;BME280;21790;42.668;23.298;2023-12-20T02:29:40;94890.63;;;6.74;49.07
35676;BME280;21790;42.668;23.298;2023-12-20T02:32:05;94889.94;;;6.86;48.59
35676;BME280;21790;42.668;23.298;2023-12-20T02:34:31;94886.84;;;6.84;48.75
35676;BME280;21790;42.668;23.298;2023-12-20T02:36:56;94874.81;;;6.78;48.71
35676;BME280;21790;42.668;23.298;2023-12-20T02:39:22;94877.59;;;6.62;48.89
35676;BME280;21790;42.668;23.298;2023-12-20T02:41:48;94867.72;;;6.81;48.40
35676;BME280;21790;42.668;23.298;2023-12-20T02:44:14;94869.41;;;6.91;47.41
35676;BME280;21790;42.668;23.298;2023-12-20T02:46:39;94869.63;;;6.67;48.06
35676;BME280;21790;42.668;23.298;2023-12-20T02:49:05;94877.78;;;6.55;48.39
35676;BME280;21790;42.668;23.298;2023-12-20T02:51:32;94873.59;;;6.95;47.42
35676;BME280;21790;42.668;23.298;2023-12-20T02:53:59;94877.09;;;6.96;47.74
35676;BME280;21790;42.668;23.298;2023-12-20T02:56:24;94877.03;;;6.83;47.65
35676;BME280;21790;42.668;23.298;2023-12-20T02:58:50;94876.06;;;6.61;48.34
35676;BME280;21790;42.668;23.298;2023-12-20T03:01:16;94872.47;;;6.64;48.07
35676;BME280;21790;42.668;23.298;2023-12-20T03:03:41;94871.34;;;6.61;48.42
35676;BME280;21790;42.668;23.298;2023-12-20T03:06:07;94863.47;;;6.47;48.95
35676;BME280;21790;42.668;23.298;2023-12-20T03:08:33;94863.91;;;6.46;48.80
35676;BME280;21790;42.668;23.298;2023-12-20T03:10:59;94863.56;;;6.60;48.59
35676;BME280;21790;42.668;23.298;2023-12-20T03:13:25;94866.53;;;6.49;48.72
35676;BME280;21790;42.668;23.298;2023-12-20T03:15:50;94868.19;;;6.47;48.92
35676;BME280;21790;42.668;23.298;2023-12-20T03:18:16;94858.25;;;6.20;49.62
35676;BME280;21790;42.668;23.298;2023-12-20T03:20:43;94861.69;;;6.24;49.41
35676;BME280;21790;42.668;23.298;2023-12-20T03:23:09;94858.31;;;6.33;48.86
35676;BME280;21790;42.668;23.298;2023-12-20T03:25:34;94862.53;;;6.54;48.08
35676;BME280;21790;42.668;23.298;2023-12-20T03:28:00;94859.22;;;6.75;47.59
35676;BME280;21790;42.668;23.298;2023-12-20T03:30:26;94852.28;;;6.70;48.35
35676;BME280;21790;42.668;23.298;2023-12-20T03:32:51;94847.00;;;6.92;47.68
35676;BME280;21790;42.668;23.298;2023-12-20T03:35:17;94838.22;;;6.97;48.13
35676;BME280;21790;42.668;23.298;2023-12-20T03:37:42;94846.59;;;7.06;48.08
35676;BME280;21790;42.668;23.298;2023-12-20T03:40:08;94847.00;;;6.92;47.78
35676;BME280;21790;42.668;23.298;2023-12-20T03:42:34;94847.00;;;6.92;47.92
35676;BME280;21790;42.668;23.298;2023-12-20T03:44:59;94848.09;;;6.95;47.67
35676;BME280;21790;42.668;23.298;2023-12-20T03:47:25;94849.09;;;7.01;47.76
35676;BME280;21790;42.668;23.298;2023-12-20T03:49:51;94843.66;;;6.85;47.72
35676;BME280;21790;42.668;23.298;2023-12-20T03:52:16;94845.72;;;6.52;48.34
35676;BME280;21790;42.668;23.298;2023-12-20T03:54:43;94849.75;;;6.47;48.77
35676;BME280;21790;42.668;23.298;2023-12-20T03:57:09;94840.13;;;6.39;48.60
35676;BME280;21790;42.668;23.298;2023-12-20T03:59:35;94839.53;;;6.48;47.98
35676;BME280;21790;42.668;23.298;2023-12-20T04:02:01;94835.50;;;6.52;48.61
35676;BME280;21790;42.668;23.298;2023-12-20T04:04:27;94834.03;;;6.64;48.35
35676;BME280;21790;42.668;23.298;2023-12-20T04:06:52;94836.03;;;6.31;48.87
35676;BME280;21790;42.668;23.298;2023-12-20T04:09:17;94830.19;;;6.45;48.42
35676;BME280;21790;42.668;23.298;2023-12-20T04:11:43;94821.34;;;6.54;48.43
35676;BME280;21790;42.668;23.298;2023-12-20T04:14:08;94829.63;;;6.38;48.25
35676;BME280;21790;42.668;23.298;2023-12-20T04:16:34;94817.88;;;6.66;47.72
35676;BME280;21790;42.668;23.298;2023-12-20T04:18:59;94813.16;;;6.66;47.55
35676;BME280;21790;42.668;23.298;2023-12-20T04:21:25;94805.00;;;6.63;47.66
35676;BME280;21790;42.668;23.298;2023-12-20T04:23:50;94809.91;;;6.55;47.96
35676;BME280;21790;42.668;23.298;2023-12-20T04:26:16;94818.63;;;6.66;47.98
35676;BME280;21790;42.668;23.298;2023-12-20T04:28:41;94818.78;;;6.47;47.88
35676;BME280;21790;42.668;23.298;2023-12-20T04:31:07;94800.91;;;6.84;56.00
35676;BME280;21790;42.668;23.298;2023-12-20T04:33:32;94806.56;;;7.72;49.76
35676;BME280;21790;42.668;23.298;2023-12-20T04:35:59;94798.84;;;8.05;46.14
35676;BME280;21790;42.668;23.298;2023-12-20T04:38:26;94800.13;;;8.13;44.94
35676;BME280;21790;42.668;23.298;2023-12-20T04:40:54;94796.88;;;7.55;45.18
35676;BME280;21790;42.668;23.298;2023-12-20T04:43:23;94791.69;;;7.32;46.38
35676;BME280;21790;42.668;23.298;2023-12-20T04:45:48;94805.63;;;7.12;46.54
35676;BME280;21790;42.668;23.298;2023-12-20T04:48:14;94799.56;;;7.17;45.82
35676;BME280;21790;42.668;23.298;2023-12-20T04:50:39;94784.84;;;6.82;47.17
35676;BME280;21790;42.668;23.298;2023-12-20T04:53:07;94791.41;;;6.72;47.59
35676;BME280;21790;42.668;23.298;2023-12-20T04:55:32;94796.53;;;6.57;47.40
35676;BME280;21790;42.668;23.298;2023-12-20T04:57:58;94783.59;;;6.58;47.40
35676;BME280;21790;42.668;23.298;2023-12-20T05:00:23;94795.97;;;6.34;47.83
35676;BME280;21790;42.668;23.298;2023-12-20T05:02:48;94786.16;;;6.20;48.57
35676;BME280;21790;42.668;23.298;2023-12-20T05:05:14;94787.84;;;6.30;48.00
35676;BME280;21790;42.668;23.298;2023-12-20T05:07:40;94775.56;;;6.35;47.97
35676;BME280;21790;42.668;23.298;2023-12-20T05:10:05;94777.72;;;6.43;47.80
35676;BME280;21790;42.668;23.298;2023-12-20T05:12:33;94785.59;;;6.41;47.39
35676;BME280;21790;42.668;23.298;2023-12-20T05:14:58;94784.03;;;6.40;47.57
35676;BME280;21790;42.668;23.298;2023-12-20T05:17:24;94778.03;;;6.74;46.78
35676;BME280;21790;42.668;23.298;2023-12-20T05:19:49;94781.22;;;6.72;46.98
35676;BME280;21790;42.668;23.298;2023-12-20T05:22:14;94778.88;;;6.58;47.27
35676;BME280;21790;42.668;23.298;2023-12-20T05:24:39;94780.06;;;6.57;47.09
35676;BME280;21790;42.668;23.298;2023-12-20T05:27:05;94776.00;;;6.62;47.14
35676;BME280;21790;42.668;23.298;2023-12-20T05:29:30;94771.81;;;6.57;47.48
35676;BME280;21790;42.668;23.298;2023-12-20T05:31:57;94762.16;;;6.53;47.46
35676;BME280;21790;42.668;23.298;2023-12-20T05:34:23;94766.22;;;6.61;47.61
35676;BME280;21790;42.668;23.298;2023-12-20T05:36:49;94757.38;;;6.69;47.29
35676;BME280;21790;42.668;23.298;2023-12-20T05:39:14;94760.94;;;6.54;47.44
35676;BME280;21790;42.668;23.298;2023-12-20T05:41:39;94761.31;;;6.40;47.81
35676;BME280;21790;42.668;23.298;2023-12-20T05:44:05;94759.28;;;6.56;47.83
35676;BME280;21790;42.668;23.298;2023-12-20T05:46:30;94760.13;;;6.41;48.12
35676;BME280;21790;42.668;23.298;2023-12-20T05:48:56;94752.78;;;6.50;47.86
35676;BME280;21790;42.668;23.298;2023-12-20T05:51:21;94755.47;;;6.54;47.58
35676;BME280;21790;42.668;23.298;2023-12-20T05:53:46;94750.16;;;6.47;47.40
35676;BME280;21790;42.668;23.298;2023-12-20T05:56:12;94751.88;;;6.41;47.48
35676;BME280;21790;42.668;23.298;2023-12-20T05:58:38;94748.75;;;6.26;48.06
35676;BME280;21790;42.668;23.298;2023-12-20T06:01:04;94733.97;;;6.36;47.86
35676;BME280;21790;42.668;23.298;2023-12-20T06:03:29;94743.47;;;6.48;47.83
35676;BME280;21790;42.668;23.298;2023-12-20T06:05:55;94743.78;;;6.50;47.79
35676;BME280;21790;42.668;23.298;2023-12-20T06:08:20;94746.25;;;6.32;48.29
35676;BME280;21790;42.668;23.298;2023-12-20T06:10:46;94735.41;;;6.41;48.52
35676;BME280;21790;42.668;23.298;2023-12-20T06:13:11;94741.09;;;6.34;48.53
35676;BME280;21790;42.668;23.298;2023-12-20T06:15:38;94745.69;;;6.53;48.50
35676;BME280;21790;42.668;23.298;2023-12-20T06:18:03;94744.94;;;6.36;48.87
35676;BME280;21790;42.668;23.298;2023-12-20T06:20:29;94750.97;;;6.31;48.97
35676;BME280;21790;42.668;23.298;2023-12-20T06:22:54;94751.41;;;6.29;49.23
35676;BME280;21790;42.668;23.298;2023-12-20T06:25:20;94748.78;;;6.39;49.06
35676;BME280;21790;42.668;23.298;2023-12-20T06:27:45;94744.00;;;6.43;49.12
35676;BME280;21790;42.668;23.298;2023-12-20T06:30:11;94747.06;;;6.45;49.08
35676;BME280;21790;42.668;23.298;2023-12-20T06:32:36;94742.16;;;6.23;50.11
35676;BME280;21790;42.668;23.298;2023-12-20T06:35:03;94745.75;;;6.49;49.53
35676;BME280;21790;42.668;23.298;2023-12-20T06:37:30;94744.91;;;6.52;49.33
35676;BME280;21790;42.668;23.298;2023-12-20T06:39:55;94746.53;;;6.50;49.61
35676;BME280;21790;42.668;23.298;2023-12-20T06:42:21;94740.97;;;6.53;49.59
35676;BME280;21790;42.668;23.298;2023-12-20T06:44:51;94741.50;;;6.48;49.55
35676;BME280;21790;42.668;23.298;2023-12-20T06:47:16;94745.03;;;6.61;49.28
35676;BME280;21790;42.668;23.298;2023-12-20T06:49:41;94725.56;;;6.85;48.69
35676;BME280;21790;42.668;23.298;2023-12-20T06:52:07;94727.50;;;6.71;48.98
35676;BME280;21790;42.668;23.298;2023-12-20T06:54:32;94734.22;;;6.83;48.64
35676;BME280;21790;42.668;23.298;2023-12-20T06:56:59;94732.59;;;6.86;48.78
35676;BME280;21790;42.668;23.298;2023-12-20T06:59:25;94722.56;;;6.79;49.22
35676;BME280;21790;42.668;23.298;2023-12-20T07:01:51;94717.28;;;6.72;49.29
35676;BME280;21790;42.668;23.298;2023-12-20T07:04:16;94718.28;;;6.78;48.98
35676;BME280;21790;42.668;23.298;2023-12-20T07:06:46;94706.22;;;6.76;49.11
35676;BME280;21790;42.668;23.298;2023-12-20T07:09:12;94713.44;;;6.69;49.20
35676;BME280;21790;42.668;23.298;2023-12-20T07:11:38;94719.41;;;6.81;48.89
35676;BME280;21790;42.668;23.298;2023-12-20T07:14:03;94717.84;;;6.80;49.07
35676;BME280;21790;42.668;23.298;2023-12-20T07:16:29;94718.13;;;6.98;48.88
35676;BME280;21790;42.668;23.298;2023-12-20T07:18:54;94717.88;;;6.92;48.78
35676;BME280;21790;42.668;23.298;2023-12-20T07:21:21;94706.25;;;7.01;49.04
35676;BME280;21790;42.668;23.298;2023-12-20T07:23:46;94706.69;;;7.12;48.78
35676;BME280;21790;42.668;23.298;2023-12-20T07:26:12;94702.72;;;7.00;48.91
35676;BME280;21790;42.668;23.298;2023-12-20T07:28:37;94695.56;;;6.90;49.21
35676;BME280;21790;42.668;23.298;2023-12-20T07:31:03;94702.63;;;7.17;48.51
35676;BME280;21790;42.668;23.298;2023-12-20T07:33:28;94694.34;;;7.04;48.80
35676;BME280;21790;42.668;23.298;2023-12-20T07:35:53;94693.03;;;6.96;49.21
35676;BME280;21790;42.668;23.298;2023-12-20T07:38:19;94692.72;;;7.06;49.09
35676;BME280;21790;42.668;23.298;2023-12-20T07:40:44;94705.16;;;7.11;49.18
35676;BME280;21790;42.668;23.298;2023-12-20T07:43:10;94699.00;;;7.07;49.22
35676;BME280;21790;42.668;23.298;2023-12-20T07:45:35;94705.47;;;7.26;48.93
35676;BME280;21790;42.668;23.298;2023-12-20T07:48:00;94699.88;;;7.29;48.94
35676;BME280;21790;42.668;23.298;2023-12-20T07:50:26;94691.84;;;7.09;49.29
35676;BME280;21790;42.668;23.298;2023-12-20T07:52:52;94696.25;;;7.20;49.34
35676;BME280;21790;42.668;23.298;2023-12-20T07:55:18;94683.81;;;7.15;49.45
35676;BME280;21790;42.668;23.298;2023-12-20T07:57:43;94683.72;;;7.19;49.43
35676;BME280;21790;42.668;23.298;2023-12-20T08:00:09;94696.34;;;7.29;49.08
35676;BME280;21790;42.668;23.298;2023-12-20T08:02:34;94673.59;;;7.28;49.40
35676;BME280;21790;42.668;23.298;2023-12-20T08:05:00;94684.47;;;7.32;49.46
35676;BME280;21790;42.668;23.298;2023-12-20T08:07:25;94697.13;;;7.17;49.95
35676;BME280;21790;42.668;23.298;2023-12-20T08:09:50;94684.16;;;7.30;49.61
35676;BME280;21790;42.668;23.298;2023-12-20T08:12:16;94683.91;;;7.37;49.95
35676;BME280;21790;42.668;23.298;2023-12-20T08:14:42;94677.28;;;7.60;49.45
35676;BME280;21790;42.668;23.298;2023-12-20T08:17:07;94672.44;;;7.76;49.63
35676;BME280;21790;42.668;23.298;2023-12-20T08:19:35;94671.56;;;7.79;49.36
35676;BME280;21790;42.668;23.298;2023-12-20T08:22:00;94679.56;;;7.86;49.09
35676;BME280;21790;42.668;23.298;2023-12-20T08:24:26;94663.00;;;7.99;49.51
35676;BME280;21790;42.668;23.298;2023-12-20T08:26:52;94676.63;;;8.03;49.20
35676;BME280;21790;42.668;23.298;2023-12-20T08:29:17;94667.50;;;8.40;48.33
35676;BME280;21790;42.668;23.298;2023-12-20T08:31:43;94660.78;;;8.41;48.04
35676;BME280;21790;42.668;23.298;2023-12-20T08:34:08;94652.91;;;8.52;47.61
35676;BME280;21790;42.668;23.298;2023-12-20T08:36:34;94655.25;;;8.63;47.14
35676;BME280;21790;42.668;23.298;2023-12-20T08:38:59;94636.06;;;8.50;47.22
35676;BME280;21790;42.668;23.298;2023-12-20T08:41:26;94648.88;;;8.44;47.76
35676;BME280;21790;42.668;23.298;2023-12-20T08:43:51;94641.56;;;8.50;47.46
35676;BME280;21790;42.668;23.298;2023-12-20T08:46:16;94636.16;;;8.68;47.41
35676;BME280;21790;42.668;23.298;2023-12-20T08:48:42;94627.22;;;8.86;46.77
35676;BME280;21790;42.668;23.298;2023-12-20T08:51:07;94623.56;;;8.89;46.65
35676;BME280;21790;42.668;23.298;2023-12-20T08:53:33;94620.41;;;8.69;46.99
35676;BME280;21790;42.668;23.298;2023-12-20T08:55:59;94624.75;;;8.79;47.03
35676;BME280;21790;42.668;23.298;2023-12-20T08:58:27;94624.03;;;8.88;47.16
35676;BME280;21790;42.668;23.298;2023-12-20T09:00:53;94621.63;;;8.99;46.80
35676;BME280;21790;42.668;23.298;2023-12-20T09:03:18;94607.09;;;9.07;46.01
35676;BME280;21790;42.668;23.298;2023-12-20T09:05:43;94612.88;;;9.00;46.47
35676;BME280;21790;42.668;23.298;2023-12-20T09:08:09;94594.69;;;9.03;46.11
35676;BME280;21790;42.668;23.298;2023-12-20T09:10:36;94586.84;;;8.92;46.83
35676;BME280;21790;42.668;23.298;2023-12-20T09:13:02;94579.63;;;8.86;46.94
35676;BME280;21790;42.668;23.298;2023-12-20T09:15:29;94573.34;;;8.85;46.88
35676;BME280;21790;42.668;23.298;2023-12-20T09:17:55;94562.94;;;8.89;46.64
35676;BME280;21790;42.668;23.298;2023-12-20T09:20:21;94556.69;;;8.98;46.52
35676;BME280;21790;42.668;23.298;2023-12-20T09:22:48;94540.78;;;9.02;46.56
35676;BME280;21790;42.668;23.298;2023-12-20T09:25:14;94551.19;;;8.98;46.42
35676;BME280;21790;42.668;23.298;2023-12-20T09:27:41;94530.38;;;9.06;46.38
35676;BME280;21790;42.668;23.298;2023-12-20T09:30:07;94548.44;;;8.98;46.85
35676;BME280;21790;42.668;23.298;2023-12-20T09:32:32;94540.06;;;9.10;46.36
35676;BME280;21790;42.668;23.298;2023-12-20T09:34:58;94523.81;;;9.03;46.73
35676;BME280;21790;42.668;23.298;2023-12-20T09:37:27;94533.78;;;9.10;46.67
35676;BME280;21790;42.668;23.298;2023-12-20T09:39:53;94510.06;;;9.21;46.16
35676;BME280;21790;42.668;23.298;2023-12-20T09:42:29;94521.81;;;9.13;46.78
35676;BME280;21790;42.668;23.298;2023-12-20T09:45:01;94508.94;;;9.01;47.28
35676;BME280;21790;42.668;23.298;2023-12-20T09:47:28;94505.28;;;9.13;46.70
35676;BME280;21790;42.668;23.298;2023-12-20T09:49:54;94496.84;;;9.16;46.62
35676;BME280;21790;42.668;23.298;2023-12-20T09:52:22;94486.31;;;9.24;46.81
35676;BME280;21790;42.668;23.298;2023-12-20T09:54:49;94500.72;;;9.28;46.47
35676;BME280;21790;42.668;23.298;2023-12-20T09:57:17;94491.06;;;9.51;45.86
35676;BME280;21790;42.668;23.298;2023-12-20T09:59:43;94484.78;;;9.50;46.29
35676;BME280;21790;42.668;23.298;2023-12-20T10:02:13;94481.41;;;9.92;45.92
35676;BME280;21790;42.668;23.298;2023-12-20T10:04:48;94494.44;;;10.19;45.66
35676;BME280;21790;42.668;23.298;2023-12-20T10:07:15;94480.41;;;10.31;45.36
35676;BME280;21790;42.668;23.298;2023-12-20T10:09:42;94478.19;;;10.54;45.00
35676;BME280;21790;42.668;23.298;2023-12-20T10:12:09;94477.03;;;10.78;45.16
35676;BME280;21790;42.668;23.298;2023-12-20T10:14:34;94476.75;;;11.00;44.99
35676;BME280;21790;42.668;23.298;2023-12-20T10:17:04;94462.88;;;11.33;44.11
35676;BME280;21790;42.668;23.298;2023-12-20T10:19:30;94452.06;;;11.59;43.47
35676;BME280;21790;42.668;23.298;2023-12-20T10:21:57;94454.72;;;11.92;43.27
35676;BME280;21790;42.668;23.298;2023-12-20T10:24:22;94445.19;;;11.93;42.39
35676;BME280;21790;42.668;23.298;2023-12-20T10:26:48;94436.69;;;11.58;43.07
35676;BME280;21790;42.668;23.298;2023-12-20T10:29:25;94423.13;;;11.98;42.88
35676;BME280;21790;42.668;23.298;2023-12-20T10:31:53;94422.91;;;12.16;41.66
35676;BME280;21790;42.668;23.298;2023-12-20T10:34:22;94424.06;;;12.39;41.62
35676;BME280;21790;42.668;23.298;2023-12-20T10:36:48;94417.97;;;12.21;41.59
35676;BME280;21790;42.668;23.298;2023-12-20T10:39:13;94413.34;;;12.47;41.50
35676;BME280;21790;42.668;23.298;2023-12-20T10:41:40;94405.63;;;12.71;41.07
35676;BME280;21790;42.668;23.298;2023-12-20T10:44:06;94402.28;;;12.82;41.39
35676;BME280;21790;42.668;23.298;2023-12-20T10:46:32;94394.66;;;12.97;40.71
35676;BME280;21790;42.668;23.298;2023-12-20T10:49:04;94387.66;;;12.81;40.33
35676;BME280;21790;42.668;23.298;2023-12-20T10:51:30;94389.59;;;12.95;40.65
35676;BME280;21790;42.668;23.298;2023-12-20T10:53:56;94392.78;;;12.88;40.36
35676;BME280;21790;42.668;23.298;2023-12-20T10:56:21;94373.34;;;12.68;40.42
35676;BME280;21790;42.668;23.298;2023-12-20T10:58:48;94383.19;;;12.69;40.12
35676;BME280;21790;42.668;23.298;2023-12-20T11:01:15;94356.56;;;12.57;40.11
35676;BME280;21790;42.668;23.298;2023-12-20T11:03:43;94381.00;;;11.80;41.98
35676;BME280;21790;42.668;23.298;2023-12-20T11:06:09;94370.34;;;11.87;41.66
35676;BME280;21790;42.668;23.298;2023-12-20T11:11:07;94358.94;;;12.14;41.87
35676;BME280;21790;42.668;23.298;2023-12-20T11:13:40;94361.00;;;12.34;41.23
35676;BME280;21790;42.668;23.298;2023-12-20T11:16:09;94341.97;;;12.42;41.33
35676;BME280;21790;42.668;23.298;2023-12-20T11:18:35;94361.78;;;12.35;40.87
35676;BME280;21790;42.668;23.298;2023-12-20T11:21:01;94326.97;;;12.48;41.01
35676;BME280;21790;42.668;23.298;2023-12-20T11:23:30;94339.94;;;12.57;40.85
35676;BME280;21790;42.668;23.298;2023-12-20T11:25:58;94315.41;;;12.70;40.55
35676;BME280;21790;42.668;23.298;2023-12-20T11:28:24;94328.28;;;12.93;40.36
35676;BME280;21790;42.668;23.298;2023-12-20T11:30:51;94315.28;;;12.79;40.15
35676;BME280;21790;42.668;23.298;2023-12-20T11:33:17;94309.38;;;12.92;40.10
35676;BME280;21790;42.668;23.298;2023-12-20T11:35:46;94307.16;;;12.76;40.21
35676;BME280;21790;42.668;23.298;2023-12-20T11:38:12;94294.47;;;12.89;40.37
35676;BME280;21790;42.668;23.298;2023-12-20T11:40:38;94286.13;;;13.10;40.02
35676;BME280;21790;42.668;23.298;2023-12-20T11:43:03;94287.66;;;13.11;40.18
35676;BME280;21790;42.668;23.298;2023-12-20T11:45:32;94288.22;;;13.15;40.07
35676;BME280;21790;42.668;23.298;2023-12-20T11:47:59;94279.97;;;13.20;40.21
35676;BME280;21790;42.668;23.298;2023-12-20T11:50:24;94276.56;;;13.11;40.08
35676;BME280;21790;42.668;23.298;2023-12-20T11:52:50;94269.34;;;12.98;40.21
35676;BME280;21790;42.668;23.298;2023-12-20T11:55:16;94268.94;;;13.06;40.41
35676;BME280;21790;42.668;23.298;2023-12-20T11:57:42;94259.28;;;13.21;40.33
35676;BME280;21790;42.668;23.298;2023-12-20T12:00:08;94252.56;;;13.28;40.21
35676;BME280;21790;42.668;23.298;2023-12-20T12:02:33;94253.66;;;13.36;39.86
35676;BME280;21790;42.668;23.298;2023-12-20T12:04:59;94244.28;;;13.33;40.25
35676;BME280;21790;42.668;23.298;2023-12-20T12:07:27;94233.28;;;13.45;40.06
35676;BME280;21790;42.668;23.298;2023-12-20T12:09:52;94227.97;;;13.41;39.92
35676;BME280;21790;42.668;23.298;2023-12-20T12:12:18;94226.63;;;13.31;40.18
35676;BME280;21790;42.668;23.298;2023-12-20T12:14:44;94224.84;;;13.08;40.61
35676;BME280;21790;42.668;23.298;2023-12-20T12:17:10;94212.50;;;13.34;40.03
35676;BME280;21790;42.668;23.298;2023-12-20T12:19:36;94215.88;;;13.44;40.15
35676;BME280;21790;42.668;23.298;2023-12-20T12:22:06;94208.59;;;13.47;40.16
35676;BME280;21790;42.668;23.298;2023-12-20T12:24:44;94207.81;;;13.46;40.08
35676;BME280;21790;42.668;23.298;2023-12-20T12:27:10;94203.66;;;13.62;39.78
35676;BME280;21790;42.668;23.298;2023-12-20T12:29:36;94207.16;;;13.57;39.48
35676;BME280;21790;42.668;23.298;2023-12-20T12:32:04;94202.31;;;13.26;40.20
35676;BME280;21790;42.668;23.298;2023-12-20T12:34:30;94202.66;;;13.33;40.13
35676;BME280;21790;42.668;23.298;2023-12-20T12:36:59;94211.69;;;13.28;40.33
35676;BME280;21790;42.668;23.298;2023-12-20T12:39:24;94211.22;;;13.30;40.06
35676;BME280;21790;42.668;23.298;2023-12-20T12:41:50;94205.25;;;13.43;40.22
35676;BME280;21790;42.668;23.298;2023-12-20T12:44:16;94211.31;;;13.41;40.09
35676;BME280;21790;42.668;23.298;2023-12-20T12:46:42;94187.88;;;13.48;39.93
35676;BME280;21790;42.668;23.298;2023-12-20T12:49:08;94194.81;;;13.06;40.84
35676;BME280;21790;42.668;23.298;2023-12-20T12:51:33;94196.03;;;13.25;40.59
35676;BME280;21790;42.668;23.298;2023-12-20T12:53:58;94194.41;;;13.13;40.91